createdAt,value
2019-04-03T00:00:17.037Z,10.18
2019-04-03T00:02:48.462Z,10.38
2019-04-03T00:05:19.845Z,10.58
2019-04-03T00:07:51.206Z,11.43
2019-04-03T00:10:22.953Z,12.53
2019-04-03T00:12:54.095Z,10.47
2019-04-03T00:15:25.227Z,8.30
2019-04-03T00:17:56.640Z,9.58
2019-04-03T00:20:28.142Z,9.98
2019-04-03T00:22:59.695Z,9.75
2019-04-03T00:25:31.077Z,9.73
2019-04-03T00:28:02.556Z,11.43
2019-04-03T00:30:34.152Z,13.83
2019-04-03T00:33:05.537Z,7.78
2019-04-03T00:35:36.606Z,10.03
2019-04-03T00:38:07.903Z,8.78
2019-04-03T00:40:39.264Z,9.75
2019-04-03T00:43:10.501Z,8.53
2019-04-03T00:45:42.242Z,8.55
2019-04-03T00:48:13.487Z,7.65
2019-04-03T00:50:45.370Z,9.20
2019-04-03T00:53:16.393Z,8.08
2019-04-03T00:55:47.536Z,8.78
2019-04-03T00:58:34.121Z,8.15
2019-04-03T01:01:07.232Z,8.00
2019-04-03T01:03:38.466Z,7.83
2019-04-03T01:06:10.135Z,7.05
2019-04-03T01:08:41.890Z,8.93
2019-04-03T01:11:13.649Z,10.28
2019-04-03T01:13:44.682Z,7.43
2019-04-03T01:16:16.077Z,9.30
2019-04-03T01:18:47.502Z,9.03
2019-04-03T01:21:18.874Z,9.98
2019-04-03T01:23:50.319Z,9.23
2019-04-03T01:26:22.047Z,8.05
2019-04-03T01:28:53.117Z,8.93
2019-04-03T01:31:24.495Z,9.88
2019-04-03T01:33:55.884Z,7.55
2019-04-03T01:36:27.439Z,11.18
2019-04-03T01:38:58.680Z,8.58
2019-04-03T01:41:30.187Z,9.93
2019-04-03T01:44:01.688Z,7.72
2019-04-03T01:46:32.923Z,9.25
2019-04-03T01:49:04.538Z,9.13
2019-04-03T01:51:35.863Z,8.28
2019-04-03T01:54:07.412Z,9.70
2019-04-03T01:56:38.752Z,8.33
2019-04-03T01:59:10.749Z,9.33
2019-04-03T02:01:42.144Z,8.08
2019-04-03T02:04:13.606Z,10.32
2019-04-03T02:06:46.156Z,9.00
2019-04-03T02:09:18.878Z,9.68
2019-04-03T02:11:49.989Z,10.90
2019-04-03T02:14:22.136Z,8.53
2019-04-03T02:16:54.086Z,10.13
2019-04-03T02:19:26.059Z,9.43
2019-04-03T02:21:58.482Z,10.88
2019-04-03T02:24:31.768Z,14.07
2019-04-03T02:27:03.619Z,10.25
2019-04-03T02:29:34.949Z,12.68
2019-04-03T02:32:06.385Z,12.23
2019-04-03T02:34:37.700Z,11.08
2019-04-03T02:37:08.962Z,9.45
2019-04-03T02:39:40.678Z,10.60
2019-04-03T02:42:11.933Z,10.25
2019-04-03T02:44:43.778Z,8.93
2019-04-03T02:47:15.254Z,11.43
2019-04-03T02:49:46.686Z,11.65
2019-04-03T02:52:17.826Z,12.55
2019-04-03T02:54:49.200Z,10.38
2019-04-03T02:57:20.833Z,13.73
2019-04-03T02:59:52.134Z,13.35
2019-04-03T03:02:23.530Z,8.35
2019-04-03T03:04:55.575Z,8.63
2019-04-03T03:07:27.240Z,9.30
2019-04-03T03:09:58.595Z,10.07
2019-04-03T03:12:30.358Z,12.13
2019-04-03T03:15:02.055Z,13.80
2019-04-03T03:17:33.984Z,12.05
2019-04-03T03:20:07.694Z,16.07
2019-04-03T03:22:39.442Z,14.47
2019-04-03T03:25:10.488Z,14.70
2019-04-03T03:27:42.663Z,11.00
2019-04-03T03:30:33.053Z,11.73
2019-04-03T03:32:47.286Z,13.88
2019-04-03T03:35:28.110Z,16.73
2019-04-03T03:37:52.143Z,14.25
2019-04-03T03:40:23.680Z,17.87
2019-04-03T03:42:55.048Z,15.05
2019-04-03T03:45:26.390Z,14.83
2019-04-03T03:47:57.916Z,16.70
2019-04-03T03:50:31.863Z,16.65
2019-04-03T03:53:03.405Z,14.85
2019-04-03T03:55:34.976Z,13.62
2019-04-03T03:58:06.119Z,17.37
2019-04-03T04:00:37.728Z,16.17
2019-04-03T04:03:10.824Z,13.78
2019-04-03T04:05:42.104Z,15.30
2019-04-03T04:08:13.124Z,14.10
2019-04-03T04:10:45.329Z,16.07
2019-04-03T04:13:17.720Z,14.65
2019-04-03T04:15:49.205Z,18.05
2019-04-03T04:18:23.157Z,16.20
2019-04-03T04:20:53.703Z,13.68
2019-04-03T04:23:25.305Z,14.58
2019-04-03T04:25:56.828Z,16.67
2019-04-03T04:28:28.448Z,17.12
2019-04-03T04:30:59.871Z,17.00
2019-04-03T04:33:31.302Z,16.83
2019-04-03T04:36:02.667Z,17.25
2019-04-03T04:38:34.122Z,17.17
2019-04-03T04:41:05.931Z,17.05
2019-04-03T04:43:37.650Z,15.68
2019-04-03T04:46:10.621Z,15.80
2019-04-03T04:48:42.616Z,15.32
2019-04-03T04:51:14.016Z,14.85
2019-04-03T04:53:45.435Z,22.35
2019-04-03T04:56:16.802Z,17.70
2019-04-03T04:58:48.415Z,20.60
2019-04-03T05:01:19.885Z,15.80
2019-04-03T05:03:53.461Z,19.75
2019-04-03T05:06:24.699Z,16.27
2019-04-03T05:08:55.943Z,16.05
2019-04-03T05:11:27.494Z,13.43
2019-04-03T05:13:58.952Z,14.70
2019-04-03T05:16:30.505Z,12.53
2019-04-03T05:19:09.611Z,12.47
2019-04-03T05:21:34.452Z,13.23
2019-04-03T05:24:13.136Z,10.80
2019-04-03T05:26:38.962Z,14.85
2019-04-03T05:29:10.736Z,14.15
2019-04-03T05:31:42.075Z,13.10
2019-04-03T05:34:13.723Z,10.30
2019-04-03T05:36:46.833Z,9.93
2019-04-03T05:39:18.581Z,8.83
2019-04-03T05:41:50.181Z,9.78
2019-04-03T05:44:23.509Z,10.08
2019-04-03T05:46:54.365Z,11.10
2019-04-03T05:49:25.709Z,9.73
2019-04-03T05:51:57.259Z,7.83
2019-04-03T05:54:29.008Z,8.38
2019-04-03T05:57:01.505Z,6.87
2019-04-03T05:59:33.797Z,9.83
2019-04-03T06:02:14.983Z,5.92
2019-04-03T06:04:40.168Z,7.30
2019-04-03T06:07:11.071Z,6.95
2019-04-03T06:09:42.343Z,10.28
2019-04-03T06:12:14.477Z,6.45
2019-04-03T06:14:49.487Z,10.00
2019-04-03T06:17:20.050Z,9.15
2019-04-03T06:19:51.701Z,8.58
2019-04-03T06:22:22.950Z,8.38
2019-04-03T06:24:56.432Z,7.20
2019-04-03T06:27:28.110Z,8.33
2019-04-03T06:30:00.306Z,11.03
2019-04-03T06:32:32.240Z,8.55
2019-04-03T06:35:03.611Z,7.65
2019-04-03T06:37:34.958Z,7.15
2019-04-03T06:40:08.945Z,8.43
2019-04-03T06:42:40.032Z,6.45
2019-04-03T06:45:11.654Z,5.27
2019-04-03T06:47:43.363Z,5.33
2019-04-03T06:50:17.387Z,8.48
2019-04-03T06:52:47.768Z,6.80
2019-04-03T06:55:19.520Z,5.12
2019-04-03T06:57:51.276Z,5.47
2019-04-03T07:00:23.466Z,8.08
2019-04-03T07:02:55.009Z,8.30
2019-04-03T07:05:28.070Z,4.40
2019-04-03T07:08:00.837Z,7.87
2019-04-03T07:10:32.729Z,5.30
2019-04-03T07:13:03.873Z,7.22
2019-04-03T07:15:35.194Z,6.45
2019-04-03T07:18:07.293Z,6.22
2019-04-03T07:20:38.850Z,7.55
2019-04-03T07:23:10.568Z,4.33
2019-04-03T07:25:41.754Z,8.33
2019-04-03T07:28:14.831Z,6.70
2019-04-03T07:30:46.002Z,10.18
2019-04-03T07:33:17.630Z,5.87
2019-04-03T07:35:49.296Z,6.72
2019-04-03T07:38:22.209Z,9.15
2019-04-03T07:40:53.612Z,9.98
2019-04-03T07:43:26.863Z,11.78
2019-04-03T07:45:58.290Z,7.92
2019-04-03T07:48:32.702Z,5.40
2019-04-03T07:51:03.122Z,9.50
2019-04-03T07:53:34.305Z,4.60
2019-04-03T07:56:06.735Z,8.38
2019-04-03T07:58:39.676Z,8.25
2019-04-03T08:01:11.215Z,6.85
2019-04-03T08:03:43.002Z,7.95
2019-04-03T08:06:14.677Z,8.30
2019-04-03T08:08:46.052Z,5.47
2019-04-03T08:11:17.686Z,8.73
2019-04-03T08:13:50.264Z,5.28
2019-04-03T08:21:21.889Z,5.25
2019-04-03T08:28:53.903Z,4.90
2019-04-03T08:36:27.146Z,6.97
2019-04-03T08:41:28.345Z,8.03
2019-04-03T08:44:00.808Z,9.78
2019-04-03T08:46:32.974Z,7.70
2019-04-03T08:49:04.050Z,5.55
2019-04-03T08:51:35.073Z,7.20
2019-04-03T08:56:37.980Z,4.60
2019-04-03T08:59:12.540Z,4.25
2019-04-03T09:01:42.720Z,8.33
2019-04-03T09:06:44.391Z,3.77
2019-04-03T09:16:47.037Z,8.48
2019-04-03T09:19:21.543Z,10.93
2019-04-03T09:24:23.916Z,8.40
2019-04-03T09:29:25.412Z,5.40
2019-04-03T09:34:29.948Z,8.75
2019-04-03T09:39:30.512Z,5.25
2019-04-03T09:42:02.498Z,5.80
2019-04-03T09:44:34.192Z,7.85
2019-04-03T09:49:38.266Z,9.28
2019-04-03T09:54:39.711Z,6.47
2019-04-03T09:59:41.695Z,8.20
2019-04-03T10:04:43.452Z,5.07
2019-04-03T10:12:15.369Z,8.90
2019-04-03T10:17:17.151Z,5.33
2019-04-03T10:22:16.854Z,7.83
2019-04-03T10:24:48.684Z,5.22
2019-04-03T10:29:50.830Z,11.08
2019-04-03T10:37:23.407Z,5.45
2019-04-03T10:42:24.819Z,8.60
2019-04-03T10:47:39.488Z,7.83
2019-04-03T10:52:30.535Z,5.00
2019-04-03T10:57:33.950Z,3.62
2019-04-03T11:07:39.707Z,5.45
2019-04-03T11:12:41.213Z,10.05
2019-04-03T11:15:12.886Z,9.85
2019-04-03T11:17:44.389Z,7.37
2019-04-03T11:20:15.737Z,7.33
2019-04-03T11:22:48.285Z,4.75
2019-04-03T11:25:20.477Z,6.50
2019-04-03T11:27:51.772Z,3.62
2019-04-03T11:30:24.770Z,7.83
2019-04-03T11:32:56.026Z,4.90
2019-04-03T11:35:28.064Z,8.93
2019-04-03T11:38:11.185Z,5.92
2019-04-03T11:40:32.313Z,5.03
2019-04-03T11:43:04.003Z,8.43
2019-04-03T11:45:36.485Z,7.55
2019-04-03T11:48:08.314Z,7.95
2019-04-03T11:50:40.235Z,7.08
2019-04-03T11:53:11.847Z,7.30
2019-04-03T11:55:43.518Z,5.05
2019-04-03T11:58:14.674Z,7.67
2019-04-03T12:00:48.016Z,5.92
2019-04-03T12:03:19.313Z,4.60
2019-04-03T12:05:50.698Z,12.58
2019-04-03T12:08:22.118Z,6.30
2019-04-03T12:10:53.966Z,8.25
2019-04-03T12:13:25.510Z,26.17
2019-04-03T12:15:58.406Z,7.30
2019-04-03T12:18:33.289Z,14.40
2019-04-03T12:21:03.251Z,12.20
2019-04-03T12:23:39.380Z,9.33
2019-04-03T12:26:12.977Z,10.88
2019-04-03T12:28:44.777Z,13.73
2019-04-03T12:31:16.315Z,7.97
2019-04-03T12:33:54.844Z,13.33
2019-04-03T12:36:21.433Z,7.60
2019-04-03T12:38:55.404Z,11.25
2019-04-03T12:41:27.500Z,8.70
2019-04-03T12:43:59.526Z,6.37
2019-04-03T12:46:37.364Z,5.58
2019-04-03T12:49:08.833Z,8.45
2019-04-03T12:51:40.260Z,5.00
2019-04-03T12:54:13.401Z,8.33
2019-04-03T12:56:44.693Z,11.97
2019-04-03T12:59:16.219Z,5.25
2019-04-03T13:01:49.230Z,7.37
2019-04-03T13:04:21.131Z,7.67
2019-04-03T13:06:52.511Z,12.05
2019-04-03T13:09:23.853Z,6.13
2019-04-03T13:11:55.414Z,6.35
2019-04-03T13:14:27.677Z,10.25
2019-04-03T13:16:59.955Z,9.73
2019-04-03T13:19:31.000Z,8.33
2019-04-03T13:22:03.067Z,7.97
2019-04-03T13:24:34.716Z,5.53
2019-04-03T13:27:06.167Z,10.80
2019-04-03T13:29:39.727Z,9.68
2019-04-03T13:32:10.743Z,7.37
2019-04-03T13:34:43.198Z,8.70
2019-04-03T13:37:14.637Z,6.90
2019-04-03T13:39:48.403Z,6.22
2019-04-03T13:42:19.908Z,8.78
2019-04-03T13:44:51.897Z,7.33
2019-04-03T13:47:23.300Z,8.53
2019-04-03T13:49:55.315Z,4.62
2019-04-03T13:52:38.695Z,10.60
2019-04-03T13:55:00.086Z,11.40
2019-04-03T13:57:33.771Z,6.83
2019-04-03T14:00:17.212Z,5.90
2019-04-03T14:02:40.138Z,5.47
2019-04-03T14:05:11.363Z,6.80
2019-04-03T14:07:43.867Z,8.20
2019-04-03T14:10:15.540Z,8.08
2019-04-03T14:12:47.190Z,6.12
2019-04-03T14:15:20.335Z,11.55
2019-04-03T14:17:56.583Z,8.23
2019-04-03T14:20:26.917Z,7.53
2019-04-03T14:22:58.695Z,7.50
2019-04-03T14:25:35.133Z,8.73
2019-04-03T14:28:03.430Z,10.10
2019-04-03T14:30:35.447Z,9.80
2019-04-03T14:33:06.822Z,7.97
2019-04-03T14:35:48.911Z,4.70
2019-04-03T14:38:12.428Z,5.35
2019-04-03T14:40:44.579Z,5.95
2019-04-03T14:43:16.825Z,6.45
2019-04-03T14:45:48.492Z,10.35
2019-04-03T14:48:20.585Z,7.20
2019-04-03T14:50:52.117Z,7.37
2019-04-03T14:53:23.111Z,8.38
2019-04-03T14:55:54.603Z,7.80
2019-04-03T14:58:27.572Z,8.50
2019-04-03T15:00:59.691Z,4.25
2019-04-03T15:03:33.527Z,8.58
2019-04-03T15:06:04.091Z,4.83
2019-04-03T15:08:35.228Z,5.33
2019-04-03T15:11:06.734Z,5.67
2019-04-03T15:13:38.034Z,4.37
2019-04-03T15:16:09.901Z,7.25
2019-04-03T15:18:42.970Z,11.60
2019-04-03T15:21:14.555Z,14.15
2019-04-03T15:23:46.303Z,8.88
2019-04-03T15:26:21.824Z,9.65
2019-04-03T15:28:52.457Z,10.60
2019-04-03T15:31:25.546Z,32.78
2019-04-03T15:33:57.663Z,24.82
2019-04-03T15:36:28.867Z,11.35
2019-04-03T15:39:00.036Z,8.10
2019-04-03T15:41:34.173Z,11.45
2019-04-03T15:44:04.933Z,8.13
2019-04-03T15:46:38.249Z,6.95
2019-04-03T15:49:08.895Z,39.33
2019-04-03T15:51:41.064Z,11.15
2019-04-03T15:54:12.442Z,27.65
2019-04-03T15:56:44.943Z,9.00
2019-04-03T15:59:17.671Z,11.63
2019-04-03T16:01:49.293Z,8.40
2019-04-03T16:04:21.809Z,11.28
2019-04-03T16:06:53.976Z,9.90
2019-04-03T16:09:25.651Z,11.55
2019-04-03T16:11:59.743Z,13.83
2019-04-03T16:14:30.252Z,18.77
2019-04-03T16:17:02.565Z,23.03
2019-04-03T16:19:35.245Z,13.28
2019-04-03T16:22:06.999Z,15.45
2019-04-03T16:24:38.735Z,14.38
2019-04-03T16:27:09.760Z,20.72
2019-04-03T16:29:41.879Z,22.75
2019-04-03T16:32:13.786Z,26.02
2019-04-03T16:34:45.562Z,12.60
2019-04-03T16:37:16.702Z,15.78
2019-04-03T16:39:48.113Z,17.17
2019-04-03T16:42:20.217Z,23.38
2019-04-03T16:44:51.961Z,18.82
2019-04-03T16:47:24.634Z,12.65
2019-04-03T16:49:57.413Z,12.65
2019-04-03T16:52:30.282Z,16.77
2019-04-03T16:55:02.261Z,29.65
2019-04-03T16:57:33.535Z,12.73
2019-04-03T17:00:08.427Z,16.30
2019-04-03T17:02:40.261Z,15.60
2019-04-03T17:05:13.101Z,19.02
2019-04-03T17:07:45.093Z,17.60
2019-04-03T17:10:16.627Z,16.25
2019-04-03T17:12:49.581Z,17.90
2019-04-03T17:15:21.789Z,19.10
2019-04-03T17:17:53.645Z,18.80
2019-04-03T17:20:25.091Z,19.20
2019-04-03T17:22:56.516Z,16.57
2019-04-03T17:25:38.250Z,18.70
2019-04-03T17:28:06.091Z,18.57
2019-04-03T17:30:34.293Z,14.55
2019-04-03T17:33:05.731Z,15.63
2019-04-03T17:35:37.002Z,15.80
2019-04-03T17:38:08.424Z,15.48
2019-04-03T17:40:39.764Z,16.55
2019-04-03T17:43:11.266Z,19.30
2019-04-03T17:45:46.133Z,25.12
2019-04-03T17:48:17.027Z,19.60
2019-04-03T17:50:49.472Z,18.05
2019-04-03T17:53:21.433Z,22.07
2019-04-03T17:55:52.374Z,24.72
2019-04-03T17:58:23.924Z,30.90
2019-04-03T18:00:54.809Z,29.72
2019-04-03T18:03:26.135Z,24.98
2019-04-03T18:05:57.586Z,29.80
2019-04-03T18:08:29.113Z,19.12
2019-04-03T18:11:00.464Z,24.50
2019-04-03T18:13:31.813Z,22.67
2019-04-03T18:16:03.050Z,20.20
2019-04-03T18:18:34.507Z,22.37
2019-04-03T18:21:06.057Z,24.43
2019-04-03T18:23:37.393Z,26.57
2019-04-03T18:26:08.651Z,24.15
2019-04-03T18:28:40.211Z,30.77
2019-04-03T18:31:11.796Z,24.70
2019-04-03T18:33:44.239Z,26.20
2019-04-03T18:36:15.791Z,27.50
2019-04-03T18:38:47.338Z,25.15
2019-04-03T18:41:18.683Z,28.90
2019-04-03T18:43:50.247Z,25.40
2019-04-03T18:46:31.564Z,26.33
2019-04-03T18:48:58.858Z,24.90
2019-04-03T18:51:27.570Z,25.48
2019-04-03T18:53:59.122Z,22.70
2019-04-03T18:56:32.067Z,26.52
2019-04-03T18:59:03.462Z,24.90
2019-04-03T19:01:34.806Z,21.40
2019-04-03T19:04:07.203Z,21.90
2019-04-03T19:06:39.144Z,17.90
2019-04-03T19:09:10.435Z,20.48
2019-04-03T19:11:42.242Z,20.32
2019-04-03T19:14:21.432Z,23.42
2019-04-03T19:16:49.690Z,20.97
2019-04-03T19:19:22.779Z,22.52
2019-04-03T19:21:52.816Z,23.40
2019-04-03T19:24:25.540Z,26.12
2019-04-03T19:26:56.896Z,47.23
2019-04-03T19:29:28.244Z,27.62
2019-04-03T19:31:59.606Z,29.65
2019-04-03T19:34:31.377Z,25.40
2019-04-03T19:37:03.551Z,21.27
2019-04-03T19:39:37.425Z,22.87
2019-04-03T19:42:07.487Z,25.97
2019-04-03T19:44:41.688Z,20.52
2019-04-03T19:47:12.705Z,23.60
2019-04-03T19:49:47.887Z,22.93
2019-04-03T19:52:18.579Z,24.60
2019-04-03T19:54:51.525Z,20.57
2019-04-03T19:57:23.120Z,23.83
2019-04-03T19:59:54.670Z,24.57
2019-04-03T20:02:27.451Z,28.38
2019-04-03T20:04:58.799Z,24.75
2019-04-03T20:07:30.145Z,22.65
2019-04-03T20:10:03.256Z,21.93
2019-04-03T20:12:35.826Z,19.73
2019-04-03T20:15:07.877Z,21.52
2019-04-03T20:17:39.905Z,21.12
2019-04-03T20:20:11.130Z,22.77
2019-04-03T20:22:42.778Z,18.95
2019-04-03T20:25:15.193Z,19.10
2019-04-03T20:27:47.367Z,21.65
2019-04-03T20:30:20.475Z,24.05
2019-04-03T20:32:52.027Z,19.10
2019-04-03T20:35:22.959Z,18.07
2019-04-03T20:37:56.680Z,20.80
2019-04-03T20:40:27.202Z,18.45
2019-04-03T20:42:58.592Z,20.40
2019-04-03T20:45:30.002Z,19.23
2019-04-03T20:48:01.555Z,20.23
2019-04-03T20:50:33.107Z,20.25
2019-04-03T20:53:04.501Z,15.95
2019-04-03T20:55:36.099Z,15.72
2019-04-03T20:58:07.206Z,18.37
2019-04-03T21:00:38.910Z,16.07
2019-04-03T21:03:12.700Z,20.10
2019-04-03T21:05:43.145Z,17.12
2019-04-03T21:08:15.004Z,16.17
2019-04-03T21:14:17.709Z,12.95
2019-04-03T21:16:49.262Z,13.53
2019-04-03T21:19:47.644Z,14.95
2019-04-03T21:22:18.993Z,13.35
2019-04-03T21:25:45.228Z,12.10
2019-04-03T21:28:16.469Z,17.37
2019-04-03T21:30:48.335Z,12.73
2019-04-03T21:33:21.937Z,12.50
2019-04-03T21:35:54.693Z,12.87
2019-04-03T21:39:14.301Z,12.95
2019-04-03T21:41:45.544Z,12.63
2019-04-03T21:48:35.764Z,13.35
2019-04-03T21:51:06.936Z,12.75
2019-04-03T21:53:38.664Z,14.57
2019-04-03T21:56:09.808Z,12.93
2019-04-03T21:58:56.167Z,13.50
2019-04-03T22:01:27.542Z,16.10
2019-04-03T22:03:59.011Z,13.20
2019-04-03T22:06:30.569Z,13.50
2019-04-03T22:09:02.119Z,10.93
2019-04-03T22:11:35.460Z,17.77
2019-04-03T22:14:06.960Z,13.95
2019-04-03T22:16:38.512Z,16.30
2019-04-03T22:19:09.925Z,14.65
2019-04-03T22:21:41.245Z,11.93
2019-04-03T22:24:12.878Z,13.32
2019-04-03T22:26:44.299Z,14.00
2019-04-03T22:29:15.978Z,17.00
2019-04-03T22:31:47.152Z,18.47
2019-04-03T22:34:18.686Z,14.63
2019-04-03T22:36:50.023Z,16.45
2019-04-03T22:39:21.294Z,18.73
2019-04-03T22:41:52.708Z,14.85
2019-04-03T22:44:24.068Z,16.95
2019-04-03T22:46:55.610Z,15.72
2019-04-03T22:49:26.960Z,13.03
2019-04-03T22:51:58.211Z,12.40
2019-04-03T22:54:29.616Z,12.27
2019-04-03T22:57:01.109Z,11.80
2019-04-03T22:59:32.443Z,12.13
2019-04-03T23:02:03.875Z,13.28
2019-04-03T23:04:35.082Z,12.68
2019-04-03T23:07:06.668Z,11.33
2019-04-03T23:09:38.375Z,12.82
2019-04-03T23:12:09.919Z,14.50
2019-04-03T23:14:41.480Z,12.68
2019-04-03T23:17:13.926Z,17.00
2019-04-03T23:19:46.280Z,14.20
2019-04-03T23:22:17.798Z,13.65
2019-04-03T23:24:49.226Z,14.63
2019-04-03T23:27:20.604Z,13.88
2019-04-03T23:29:52.034Z,13.60
2019-04-03T23:32:23.379Z,13.70
2019-04-03T23:34:54.929Z,13.10
2019-04-03T23:37:26.269Z,19.95
2019-04-03T23:39:59.147Z,18.10
2019-04-03T23:42:31.026Z,19.67
2019-04-03T23:45:02.367Z,22.90
2019-04-03T23:47:33.926Z,21.17
2019-04-03T23:50:06.921Z,26.37
2019-04-03T23:52:37.951Z,25.73
2019-04-03T23:55:09.613Z,27.43
2019-04-03T23:57:40.958Z,31.75
